createdAt,value
2023-03-24T00:01:30.568Z,22.43
2023-03-24T00:04:01.179Z,22.06
2023-03-24T00:06:29.552Z,21.98
2023-03-24T00:08:58.083Z,22.01
2023-03-24T00:11:30.030Z,21.94
2023-03-24T00:14:00.094Z,21.84
2023-03-24T00:16:28.396Z,21.89
2023-03-24T00:18:57.926Z,21.95
2023-03-24T00:21:27.193Z,22.05
2023-03-24T00:23:58.461Z,22.08
2023-03-24T00:26:26.922Z,21.89
2023-03-24T00:28:57.157Z,22.03
2023-03-24T00:31:27.542Z,22.28
2023-03-24T00:33:56.178Z,21.85
2023-03-24T00:36:26.468Z,22.31
2023-03-24T00:38:55.118Z,21.99
2023-03-24T00:41:27.225Z,22.07
2023-03-24T00:43:57.134Z,22.11
2023-03-24T00:46:30.235Z,22.27
2023-03-24T00:49:06.178Z,22.30
2023-03-24T00:51:36.504Z,22.40
2023-03-24T00:54:05.749Z,22.13
2023-03-24T00:56:35.910Z,22.10
2023-03-24T00:59:05.347Z,22.08
2023-03-24T01:01:36.690Z,22.35
2023-03-24T01:04:06.343Z,22.02
2023-03-24T01:06:36.769Z,22.17
2023-03-24T01:09:06.047Z,21.87
2023-03-24T01:11:40.304Z,22.31
2023-03-24T01:14:09.890Z,21.91
2023-03-24T01:16:40.016Z,22.38
2023-03-24T01:19:09.608Z,22.05
2023-03-24T01:21:38.216Z,21.91
2023-03-24T01:24:07.881Z,22.16
2023-03-24T01:26:36.096Z,21.81
2023-03-24T01:29:04.886Z,21.96
2023-03-24T01:31:33.431Z,21.85
2023-03-24T01:34:03.757Z,22.28
2023-03-24T01:36:32.094Z,21.75
2023-03-24T01:39:01.488Z,21.80
2023-03-24T01:41:34.489Z,22.38
2023-03-24T01:44:03.529Z,22.01
2023-03-24T01:46:33.510Z,21.79
2023-03-24T01:49:06.381Z,22.35
2023-03-24T01:51:36.705Z,22.15
2023-03-24T01:54:09.452Z,22.33
2023-03-24T01:56:39.971Z,22.01
2023-03-24T01:59:11.301Z,22.32
2023-03-24T02:01:39.559Z,21.66
2023-03-24T02:04:11.467Z,22.06
2023-03-24T02:06:41.564Z,22.82
2023-03-24T02:09:10.637Z,21.56
2023-03-24T02:11:40.864Z,21.96
2023-03-24T02:14:10.360Z,21.78
2023-03-24T02:16:52.540Z,22.27
2023-03-24T02:19:54.199Z,22.40
2023-03-24T02:22:48.137Z,22.31
2023-03-24T02:25:43.862Z,22.40
2023-03-24T02:28:29.009Z,22.43
2023-03-24T02:31:48.212Z,22.63
2023-03-24T02:34:43.890Z,22.35
2023-03-24T02:37:27.780Z,22.15
2023-03-24T02:40:18.314Z,22.16
2023-03-24T02:43:02.458Z,21.85
2023-03-24T02:45:39.536Z,21.64
2023-03-24T02:48:26.159Z,21.98
2023-03-24T02:51:11.323Z,21.80
2023-03-24T02:53:44.516Z,21.52
2023-03-24T02:56:22.516Z,21.81
2023-03-24T02:59:29.614Z,21.92
2023-03-24T03:02:10.252Z,21.89
2023-03-24T03:04:42.140Z,21.86
2023-03-24T03:07:17.566Z,21.80
2023-03-24T03:09:53.790Z,21.83
2023-03-24T03:12:29.361Z,21.79
2023-03-24T03:15:07.190Z,21.65
2023-03-24T03:17:48.538Z,21.76
2023-03-24T03:20:31.606Z,21.46
2023-03-24T03:23:04.547Z,21.44
2023-03-24T03:25:42.675Z,21.39
2023-03-24T03:28:17.433Z,21.37
2023-03-24T03:30:49.766Z,21.20
2023-03-24T03:33:25.325Z,21.26
2023-03-24T03:35:55.946Z,21.20
2023-03-24T03:38:27.220Z,21.16
2023-03-24T03:40:57.533Z,21.10
2023-03-24T03:43:28.413Z,21.18
2023-03-24T03:45:57.439Z,20.89
2023-03-24T03:48:26.889Z,20.70
2023-03-24T03:51:10.101Z,20.85
2023-03-24T03:53:46.362Z,21.24
2023-03-24T03:56:18.358Z,21.05
2023-03-24T03:58:49.266Z,21.21
2023-03-24T04:01:20.633Z,21.05
2023-03-24T04:04:00.922Z,21.37
2023-03-24T04:06:36.162Z,21.13
2023-03-24T04:09:13.040Z,21.12
2023-03-24T04:11:50.685Z,21.08
2023-03-24T04:14:31.933Z,21.18
2023-03-24T04:17:04.781Z,20.69
2023-03-24T04:19:41.388Z,20.78
2023-03-24T04:22:21.788Z,20.99
2023-03-24T04:24:54.828Z,20.86
2023-03-24T04:27:28.303Z,20.90
2023-03-24T04:30:06.366Z,20.94
2023-03-24T04:32:41.616Z,20.80
2023-03-24T04:35:13.393Z,20.71
2023-03-24T04:37:42.118Z,20.08
2023-03-24T04:40:15.853Z,20.52
2023-03-24T04:42:45.643Z,21.36
2023-03-24T04:45:17.236Z,20.50
2023-03-24T04:47:48.979Z,20.36
2023-03-24T04:50:31.172Z,20.61
2023-03-24T04:53:00.637Z,20.02
2023-03-24T04:55:54.858Z,20.78
2023-03-24T04:58:24.259Z,20.15
2023-03-24T05:00:55.666Z,20.05
2023-03-24T05:03:24.513Z,19.67
2023-03-24T05:05:53.697Z,19.78
2023-03-24T05:08:22.582Z,19.57
2023-03-24T05:10:50.888Z,19.58
2023-03-24T05:13:19.456Z,19.50
2023-03-24T05:15:47.820Z,19.58
2023-03-24T05:18:18.087Z,19.87
2023-03-24T05:20:46.494Z,19.47
2023-03-24T05:23:17.852Z,19.46
2023-03-24T05:25:47.774Z,19.76
2023-03-24T05:28:16.493Z,19.39
2023-03-24T05:30:44.802Z,19.40
2023-03-24T05:33:13.304Z,19.16
2023-03-24T05:35:43.331Z,19.69
2023-03-24T05:38:12.061Z,18.98
2023-03-24T05:40:41.315Z,19.27
2023-03-24T05:43:10.108Z,19.30
2023-03-24T05:45:38.420Z,19.36
2023-03-24T05:48:07.520Z,19.16
2023-03-24T05:50:35.995Z,19.17
2023-03-24T05:53:06.062Z,19.60
2023-03-24T05:55:34.518Z,19.18
2023-03-24T05:58:03.671Z,19.06
2023-03-24T06:00:33.586Z,19.13
2023-03-24T06:03:04.202Z,19.08
2023-03-24T06:05:34.529Z,19.09
2023-03-24T06:08:03.766Z,19.03
2023-03-24T06:10:33.601Z,19.62
2023-03-24T06:13:02.114Z,19.22
2023-03-24T06:15:31.030Z,19.50
2023-03-24T06:18:01.262Z,19.43
2023-03-24T06:20:29.661Z,19.45
2023-03-24T06:23:00.120Z,19.62
2023-03-24T06:25:30.071Z,19.66
2023-03-24T06:28:05.962Z,20.05
2023-03-24T06:30:34.505Z,19.77
2023-03-24T06:33:03.531Z,19.75
2023-03-24T06:35:32.390Z,19.85
2023-03-24T06:38:01.466Z,19.90
2023-03-24T06:40:30.347Z,20.06
2023-03-24T06:43:00.660Z,20.37
2023-03-24T06:45:30.731Z,20.03
2023-03-24T06:48:00.148Z,20.05
2023-03-24T06:50:33.234Z,20.04
2023-03-24T06:53:02.643Z,20.20
2023-03-24T06:55:31.139Z,20.19
2023-03-24T06:58:02.582Z,20.81
2023-03-24T07:00:30.930Z,20.19
2023-03-24T07:02:59.904Z,20.28
2023-03-24T07:05:32.751Z,20.17
2023-03-24T07:10:34.050Z,20.30
2023-03-24T07:13:04.382Z,20.98
2023-03-24T07:15:32.697Z,20.63
2023-03-24T07:18:01.603Z,20.91
2023-03-24T07:20:29.987Z,21.16
2023-03-24T07:22:59.227Z,21.39
2023-03-24T07:25:27.795Z,21.51
2023-03-24T07:28:08.891Z,21.78
2023-03-24T07:30:51.648Z,21.97
2023-03-24T07:33:24.453Z,21.54
2023-03-24T07:35:56.278Z,22.21
2023-03-24T07:38:25.100Z,21.71
2023-03-24T07:40:54.074Z,21.99
2023-03-24T07:43:23.049Z,21.95
2023-03-24T07:45:53.229Z,22.36
2023-03-24T07:48:21.880Z,22.15
2023-03-24T07:50:50.410Z,22.43
2023-03-24T07:53:20.351Z,22.48
2023-03-24T07:55:49.534Z,22.80
2023-03-24T07:58:18.309Z,22.99
2023-03-24T08:00:46.895Z,23.34
2023-03-24T08:03:17.566Z,24.30
2023-03-24T08:05:47.698Z,24.35
2023-03-24T08:08:17.022Z,24.79
2023-03-24T08:10:46.819Z,25.07
2023-03-24T08:13:15.794Z,25.66
2023-03-24T08:15:44.264Z,26.02
2023-03-24T08:18:13.276Z,26.02
2023-03-24T08:20:43.391Z,26.47
2023-03-24T08:23:12.111Z,26.29
2023-03-24T08:25:40.393Z,26.31
2023-03-24T08:28:09.190Z,26.69
2023-03-24T08:30:37.492Z,27.14
2023-03-24T08:33:06.384Z,28.19
2023-03-24T08:35:39.104Z,29.96
2023-03-24T08:38:11.244Z,31.43
2023-03-24T08:40:41.175Z,32.19
2023-03-24T08:43:11.153Z,32.87
2023-03-24T08:45:40.141Z,33.40
2023-03-24T08:48:09.810Z,33.00
2023-03-24T08:50:39.656Z,32.92
2023-03-24T08:53:11.319Z,33.09
2023-03-24T08:55:41.967Z,33.09
2023-03-24T08:58:12.663Z,34.64
2023-03-24T09:00:41.786Z,33.43
2023-03-24T09:03:11.782Z,33.45
2023-03-24T09:05:44.811Z,33.11
2023-03-24T09:08:16.544Z,34.31
2023-03-24T09:10:47.251Z,34.93
2023-03-24T09:13:16.806Z,35.25
2023-03-24T09:15:49.413Z,36.30
2023-03-24T09:18:18.705Z,37.32
2023-03-24T09:20:48.179Z,38.31
2023-03-24T09:23:18.848Z,38.63
2023-03-24T09:25:47.939Z,38.56
2023-03-24T09:28:17.449Z,38.87
2023-03-24T09:30:45.914Z,38.57
2023-03-24T09:33:14.937Z,38.60
2023-03-24T09:35:43.451Z,38.10
2023-03-24T09:38:12.792Z,38.24
2023-03-24T09:40:43.787Z,37.67
2023-03-24T09:43:18.140Z,36.71
2023-03-24T09:45:51.355Z,35.31
2023-03-24T09:48:31.898Z,34.46
2023-03-24T09:51:03.684Z,34.04
2023-03-24T09:53:38.172Z,33.22
2023-03-24T09:56:13.447Z,32.83
2023-03-24T09:58:42.838Z,31.89
2023-03-24T10:01:15.479Z,31.42
2023-03-24T10:03:44.396Z,30.26
2023-03-24T10:06:18.274Z,30.56
2023-03-24T10:08:51.008Z,30.91
2023-03-24T10:11:26.938Z,31.67
2023-03-24T10:14:09.182Z,32.18
2023-03-24T10:16:41.810Z,31.59
2023-03-24T10:19:20.587Z,31.99
2023-03-24T10:21:56.723Z,32.30
2023-03-24T10:24:30.825Z,32.79
2023-03-24T10:27:05.775Z,33.26
2023-03-24T10:29:35.783Z,32.80
2023-03-24T10:32:07.748Z,32.79
2023-03-24T10:34:37.267Z,32.14
2023-03-24T10:37:05.720Z,31.84
2023-03-24T10:39:44.061Z,31.48
2023-03-24T10:42:22.065Z,32.12
2023-03-24T10:44:52.076Z,31.52
2023-03-24T10:47:25.086Z,31.41
2023-03-24T10:49:55.973Z,31.07
2023-03-24T10:52:25.654Z,31.04
2023-03-24T10:54:58.881Z,31.59
2023-03-24T10:57:29.257Z,31.71
2023-03-24T10:59:59.927Z,31.86
2023-03-24T11:02:31.701Z,32.16
2023-03-24T11:05:02.575Z,32.29
2023-03-24T11:07:34.330Z,32.83
2023-03-24T11:10:07.592Z,33.06
2023-03-24T11:12:39.233Z,33.43
2023-03-24T11:15:22.396Z,34.00
2023-03-24T11:17:57.350Z,34.07
2023-03-24T11:20:31.055Z,34.10
2023-03-24T11:23:02.923Z,34.53
2023-03-24T11:25:34.334Z,34.31
2023-03-24T11:28:07.014Z,34.32
2023-03-24T11:30:37.532Z,33.84
2023-03-24T11:33:07.389Z,33.25
2023-03-24T11:35:41.737Z,32.89
2023-03-24T11:38:17.668Z,33.24
2023-03-24T11:40:58.338Z,33.21
2023-03-24T11:43:28.579Z,32.96
2023-03-24T11:46:01.487Z,32.93
2023-03-24T11:48:34.266Z,32.72
2023-03-24T11:51:04.626Z,32.09
2023-03-24T11:53:40.532Z,32.01
2023-03-24T11:56:13.322Z,31.71
2023-03-24T11:58:47.358Z,31.47
2023-03-24T12:01:25.942Z,31.62
2023-03-24T12:04:26.385Z,31.49
2023-03-24T12:07:07.360Z,31.00
2023-03-24T12:09:41.038Z,30.90
2023-03-24T12:12:22.586Z,30.93
2023-03-24T12:15:14.431Z,30.83
2023-03-24T12:17:57.065Z,30.01
2023-03-24T12:20:28.341Z,29.69
2023-03-24T12:23:01.394Z,29.58
2023-03-24T12:25:41.613Z,29.75
2023-03-24T12:28:29.634Z,29.73
2023-03-24T12:31:11.601Z,29.29
2023-03-24T12:33:47.166Z,29.08
2023-03-24T12:36:25.112Z,28.83
2023-03-24T12:39:05.076Z,28.67
2023-03-24T12:41:43.631Z,28.55
2023-03-24T12:44:26.712Z,28.92
2023-03-24T12:47:04.094Z,28.46
2023-03-24T12:49:43.077Z,28.33
2023-03-24T12:52:22.981Z,28.26
2023-03-24T12:54:54.714Z,27.97
2023-03-24T12:57:25.837Z,28.03
2023-03-24T12:59:58.262Z,28.03
2023-03-24T13:02:31.641Z,27.96
2023-03-24T13:05:06.104Z,28.00
2023-03-24T13:07:39.428Z,28.06
2023-03-24T13:10:15.166Z,28.42
2023-03-24T13:12:45.764Z,28.23
2023-03-24T13:15:17.867Z,28.23
2023-03-24T13:17:50.468Z,28.31
2023-03-24T13:20:26.061Z,28.24
2023-03-24T13:22:54.499Z,27.64
2023-03-24T13:25:29.606Z,28.03
2023-03-24T13:28:01.074Z,27.87
2023-03-24T13:30:33.400Z,27.97
2023-03-24T13:33:06.530Z,28.11
2023-03-24T13:35:54.057Z,28.40
2023-03-24T13:38:28.417Z,28.35
2023-03-24T13:40:57.756Z,28.01
2023-03-24T13:43:27.811Z,28.06
2023-03-24T13:46:00.945Z,28.29
2023-03-24T13:48:37.799Z,28.08
2023-03-24T13:51:10.175Z,27.98
2023-03-24T13:53:41.041Z,27.89
2023-03-24T13:56:09.622Z,28.58
2023-03-24T13:58:51.022Z,28.17
2023-03-24T14:01:33.602Z,28.14
2023-03-24T14:04:27.698Z,28.34
2023-03-24T14:06:57.127Z,27.32
2023-03-24T14:09:27.362Z,27.28
2023-03-24T14:12:19.252Z,27.87
2023-03-24T14:15:15.215Z,27.77
2023-03-24T14:17:45.984Z,26.97
2023-03-24T14:20:27.312Z,27.43
2023-03-24T14:22:57.025Z,26.56
2023-03-24T14:25:30.781Z,27.19
2023-03-24T14:28:21.805Z,27.42
2023-03-24T14:31:04.961Z,27.37
2023-03-24T14:33:33.750Z,26.35
2023-03-24T14:36:12.104Z,26.87
2023-03-24T14:38:43.313Z,26.73
2023-03-24T14:41:16.213Z,26.72
2023-03-24T14:43:56.409Z,26.78
2023-03-24T14:46:40.127Z,26.75
2023-03-24T14:49:18.930Z,26.55
2023-03-24T14:52:21.006Z,26.41
2023-03-24T14:54:53.786Z,25.91
2023-03-24T14:57:25.161Z,25.76
2023-03-24T14:59:58.501Z,25.83
2023-03-24T15:02:31.355Z,25.57
2023-03-24T15:05:31.683Z,25.90
2023-03-24T15:08:04.736Z,25.68
2023-03-24T15:10:37.489Z,25.49
2023-03-24T15:13:06.232Z,25.13
2023-03-24T15:15:35.035Z,25.14
2023-03-24T15:18:04.197Z,24.91
2023-03-24T15:20:35.917Z,25.45
2023-03-24T15:23:09.044Z,25.65
2023-03-24T15:25:43.047Z,25.64
2023-03-24T15:28:17.622Z,25.58
2023-03-24T15:30:46.704Z,24.95
2023-03-24T15:33:15.450Z,24.87
2023-03-24T15:35:44.693Z,25.07
2023-03-24T15:38:21.999Z,25.57
2023-03-24T15:40:58.510Z,25.15
2023-03-24T15:43:26.984Z,24.64
2023-03-24T15:46:08.842Z,24.82
2023-03-24T15:48:40.969Z,24.29
2023-03-24T15:51:11.768Z,24.36
2023-03-24T15:53:44.573Z,24.10
2023-03-24T15:56:19.546Z,24.08
2023-03-24T15:58:52.813Z,23.81
2023-03-24T16:01:27.499Z,23.79
2023-03-24T16:03:56.199Z,23.13
2023-03-24T16:06:30.345Z,23.18
2023-03-24T16:09:03.442Z,23.01
2023-03-24T16:11:32.154Z,22.35
2023-03-24T16:14:21.916Z,23.27
2023-03-24T16:16:55.161Z,22.81
2023-03-24T16:19:23.778Z,22.08
2023-03-24T16:21:52.555Z,22.03
2023-03-24T16:24:22.794Z,22.32
2023-03-24T16:26:52.011Z,21.90
2023-03-24T16:29:21.996Z,22.25
2023-03-24T16:31:52.347Z,22.40
2023-03-24T16:34:22.148Z,22.05
2023-03-24T16:36:52.538Z,22.01
2023-03-24T16:39:23.820Z,21.97
2023-03-24T16:41:52.661Z,21.58
2023-03-24T16:44:21.946Z,21.70
2023-03-24T16:46:53.787Z,21.91
2023-03-24T16:49:23.937Z,21.58
2023-03-24T16:51:53.849Z,21.29
2023-03-24T16:54:23.626Z,21.58
2023-03-24T16:56:52.414Z,21.03
2023-03-24T16:59:21.470Z,20.90
2023-03-24T17:01:53.573Z,21.55
2023-03-24T17:04:23.787Z,21.17
2023-03-24T17:06:54.695Z,21.32
2023-03-24T17:09:24.847Z,21.30
2023-03-24T17:11:54.837Z,21.19
2023-03-24T17:14:23.334Z,20.96
2023-03-24T17:16:53.495Z,20.85
2023-03-24T17:19:23.300Z,20.79
2023-03-24T17:21:56.859Z,20.84
2023-03-24T17:24:26.616Z,20.68
2023-03-24T17:26:55.590Z,19.81
2023-03-24T17:29:23.917Z,19.96
2023-03-24T17:31:52.859Z,20.27
2023-03-24T17:34:22.248Z,20.35
2023-03-24T17:36:51.946Z,20.71
2023-03-24T17:39:21.981Z,21.17
2023-03-24T17:41:52.076Z,21.36
2023-03-24T17:44:20.661Z,21.11
2023-03-24T17:46:49.400Z,21.09
2023-03-24T17:49:17.902Z,21.05
2023-03-24T17:51:46.657Z,21.06
2023-03-24T17:54:19.262Z,20.73
2023-03-24T17:56:48.098Z,20.66
2023-03-24T17:59:17.911Z,21.18
2023-03-24T18:01:47.389Z,20.60
2023-03-24T18:04:17.473Z,20.48
2023-03-24T18:06:47.868Z,20.50
2023-03-24T18:09:17.392Z,20.46
2023-03-24T18:11:47.781Z,20.35
2023-03-24T18:14:18.217Z,20.75
2023-03-24T18:16:47.324Z,20.58
2023-03-24T18:19:16.327Z,20.22
2023-03-24T18:21:45.532Z,20.35
2023-03-24T18:24:14.164Z,20.29
2023-03-24T18:26:42.656Z,20.30
2023-03-24T18:29:11.688Z,20.41
2023-03-24T18:31:41.825Z,20.80
2023-03-24T18:34:10.145Z,20.21
2023-03-24T18:36:40.428Z,20.25
2023-03-24T18:39:10.085Z,20.48
2023-03-24T18:41:39.374Z,20.45
2023-03-24T18:44:09.136Z,20.60
2023-03-24T18:46:37.900Z,20.16
2023-03-24T18:49:08.484Z,20.39
2023-03-24T18:51:37.205Z,19.85
2023-03-24T18:54:06.756Z,19.84
2023-03-24T18:56:35.780Z,19.70
2023-03-24T18:59:04.022Z,19.84
2023-03-24T19:01:33.432Z,19.76
2023-03-24T19:04:02.409Z,19.99
2023-03-24T19:06:35.423Z,20.16
2023-03-24T19:09:05.562Z,20.09
2023-03-24T19:11:34.199Z,19.92
2023-03-24T19:14:02.861Z,20.08
2023-03-24T19:16:31.554Z,19.90
2023-03-24T19:19:00.293Z,19.70
2023-03-24T19:21:29.067Z,19.52
2023-03-24T19:23:59.093Z,20.17
2023-03-24T19:26:27.751Z,19.77
2023-03-24T19:28:57.587Z,19.97
2023-03-24T19:31:26.234Z,19.85
2023-03-24T19:33:55.128Z,19.92
2023-03-24T19:36:25.562Z,19.92
2023-03-24T19:38:53.861Z,19.67
2023-03-24T19:41:26.419Z,20.16
2023-03-24T19:43:54.834Z,19.78
2023-03-24T19:46:23.374Z,19.83
2023-03-24T19:48:51.788Z,19.78
2023-03-24T19:51:21.319Z,19.74
2023-03-24T19:53:49.602Z,19.78
2023-03-24T19:56:20.893Z,19.89
2023-03-24T19:58:51.037Z,20.21
2023-03-24T20:01:21.545Z,19.70
2023-03-24T20:03:49.973Z,19.81
2023-03-24T20:06:19.912Z,19.95
2023-03-24T20:08:48.290Z,19.73
2023-03-24T20:11:16.877Z,19.53
2023-03-24T20:13:45.142Z,19.79
2023-03-24T20:16:15.266Z,20.19
2023-03-24T20:18:43.559Z,19.65
2023-03-24T20:21:13.914Z,20.04
2023-03-24T20:23:42.181Z,19.63
2023-03-24T20:26:10.734Z,19.77
2023-03-24T20:28:39.006Z,19.56
2023-03-24T20:31:08.315Z,19.60
2023-03-24T20:33:38.071Z,19.95
2023-03-24T20:36:07.545Z,19.74
2023-03-24T20:38:35.777Z,19.26
2023-03-24T20:41:06.329Z,19.72
2023-03-24T20:43:36.300Z,19.79
2023-03-24T20:46:05.558Z,19.68
2023-03-24T20:48:34.114Z,19.57
2023-03-24T20:51:04.268Z,19.73
2023-03-24T20:53:35.071Z,19.50
2023-03-24T20:56:06.748Z,19.75
2023-03-24T20:58:34.901Z,20.42
2023-03-24T21:01:08.288Z,19.69
2023-03-24T21:03:37.192Z,19.48
2023-03-24T21:06:10.312Z,19.85
2023-03-24T21:08:38.694Z,19.17
2023-03-24T21:11:07.247Z,19.18
2023-03-24T21:13:37.867Z,19.18
2023-03-24T21:16:08.624Z,20.13
2023-03-24T21:18:37.924Z,19.12
2023-03-24T21:21:12.738Z,19.54
2023-03-24T21:23:41.781Z,19.18
2023-03-24T21:26:13.344Z,19.41
2023-03-24T21:28:41.612Z,19.23
2023-03-24T21:31:12.851Z,19.56
2023-03-24T21:33:43.472Z,19.11
2023-03-24T21:36:13.931Z,19.67
2023-03-24T21:38:42.780Z,19.43
2023-03-24T21:41:11.570Z,19.50
2023-03-24T21:43:41.101Z,19.48
2023-03-24T21:46:15.011Z,19.62
2023-03-24T21:48:50.267Z,19.55
2023-03-24T21:51:25.150Z,20.30
2023-03-24T21:53:55.731Z,19.79
2023-03-24T21:56:24.875Z,19.80
2023-03-24T21:58:54.983Z,20.16
2023-03-24T22:01:23.784Z,19.67
2023-03-24T22:03:54.374Z,19.63
2023-03-24T22:06:24.822Z,20.07
2023-03-24T22:08:58.347Z,19.51
2023-03-24T22:11:27.351Z,19.68
2023-03-24T22:13:55.627Z,19.65
2023-03-24T22:16:24.163Z,19.76
2023-03-24T22:18:53.379Z,19.77
2023-03-24T22:21:21.930Z,19.87
2023-03-24T22:23:51.608Z,20.42
2023-03-24T22:26:20.489Z,19.97
2023-03-24T22:28:48.702Z,20.00
2023-03-24T22:31:17.758Z,20.04
2023-03-24T22:33:48.077Z,19.92
2023-03-24T22:36:17.732Z,19.82
2023-03-24T22:38:46.542Z,19.90
2023-03-24T22:41:16.792Z,20.40
2023-03-24T22:43:44.972Z,19.96
2023-03-24T22:46:14.588Z,19.88
2023-03-24T22:48:42.958Z,19.87
2023-03-24T22:51:16.999Z,19.88
2023-03-24T22:53:45.261Z,19.81
2023-03-24T22:56:13.825Z,19.67
2023-03-24T22:58:43.654Z,20.21
2023-03-24T23:01:12.120Z,19.75
2023-03-24T23:03:40.582Z,20.03
2023-03-24T23:06:11.135Z,20.33
2023-03-24T23:08:40.281Z,19.71
2023-03-24T23:11:09.479Z,20.03
2023-03-24T23:13:38.954Z,19.80
2023-03-24T23:16:09.725Z,20.29
2023-03-24T23:18:38.580Z,19.98
2023-03-24T23:21:09.424Z,20.08
2023-03-24T23:23:38.739Z,20.06
2023-03-24T23:26:07.745Z,19.91
2023-03-24T23:28:36.481Z,19.96
2023-03-24T23:31:14.326Z,20.32
2023-03-24T23:33:43.147Z,19.75
2023-03-24T23:36:17.126Z,19.83
2023-03-24T23:38:50.613Z,19.95
2023-03-24T23:41:20.502Z,20.09
2023-03-24T23:43:49.082Z,19.81
2023-03-24T23:46:19.308Z,20.25
2023-03-24T23:48:47.732Z,19.86
2023-03-24T23:51:16.486Z,19.79
2023-03-24T23:53:44.681Z,19.73
2023-03-24T23:56:14.993Z,19.86
2023-03-24T23:58:43.597Z,19.83
